createdAt,value
2018-01-03T07:01:45.600Z,0.40
2018-01-03T07:04:13.134Z,0.50
2018-01-03T07:06:40.685Z,0.43
2018-01-03T07:09:09.089Z,0.50
2018-01-03T07:11:36.620Z,0.60
2018-01-03T07:14:04.945Z,0.37
2018-01-03T07:16:32.476Z,0.37
2018-01-03T07:19:00.011Z,0.73
2018-01-03T07:21:28.310Z,0.87
2018-01-03T07:24:09.006Z,0.60
2018-01-03T07:26:50.745Z,0.60
2018-01-03T07:29:34.040Z,0.53
2018-01-03T07:32:14.584Z,0.70
2018-01-03T07:34:56.254Z,0.87
2018-01-03T07:37:40.008Z,0.73
2018-01-03T07:40:23.041Z,1.23
2018-01-03T07:43:05.438Z,0.60
2018-01-03T07:45:48.419Z,0.77
2018-01-03T07:48:30.438Z,0.60
2018-01-03T07:51:13.046Z,0.93
2018-01-03T07:53:55.077Z,0.60
2018-01-03T07:56:36.460Z,0.60
2018-01-03T07:59:18.224Z,2.00
2018-01-03T08:02:00.084Z,0.80
2018-01-03T08:04:42.886Z,0.83
2018-01-03T08:07:23.472Z,0.47
2018-01-03T08:10:07.573Z,0.60
2018-01-03T08:12:35.132Z,0.67
2018-01-03T08:15:02.674Z,0.70
2018-01-03T08:17:30.211Z,0.83
2018-01-03T08:19:58.520Z,1.00
2018-01-03T08:22:26.385Z,1.50
2018-01-03T08:24:53.916Z,1.17
2018-01-03T08:27:22.224Z,1.87
2018-01-03T08:29:49.779Z,1.60
2018-01-03T08:32:17.316Z,1.37
2018-01-03T08:34:45.606Z,1.70
2018-01-03T08:37:14.098Z,1.23
2018-01-03T08:39:41.631Z,1.03
2018-01-03T08:42:10.524Z,2.20
2018-01-03T08:44:39.436Z,1.70
2018-01-03T08:47:06.971Z,2.43
2018-01-03T08:49:35.280Z,2.03
2018-01-03T08:52:02.804Z,1.43
2018-01-03T08:54:44.858Z,1.63
2018-01-03T08:57:27.070Z,1.40
2018-01-03T09:00:09.519Z,2.13
2018-01-03T09:02:51.448Z,2.73
2018-01-03T09:05:33.158Z,2.10
2018-01-03T09:08:14.757Z,1.40
2018-01-03T09:10:57.595Z,1.57
2018-01-03T09:13:37.300Z,1.43
2018-01-03T09:16:18.842Z,2.13
2018-01-03T09:19:02.356Z,2.00
2018-01-03T09:21:43.912Z,1.63
2018-01-03T09:24:26.102Z,2.43
2018-01-03T09:27:07.920Z,1.70
2018-01-03T09:29:35.448Z,2.47
2018-01-03T09:32:03.013Z,3.43
2018-01-03T09:34:30.548Z,1.63
2018-01-03T09:36:58.071Z,2.13
2018-01-03T09:39:25.603Z,1.80
2018-01-03T09:42:05.763Z,1.30
2018-01-03T09:44:50.618Z,1.40
2018-01-03T09:47:30.614Z,1.07
2018-01-03T09:50:12.688Z,1.10
2018-01-03T09:52:42.062Z,0.80
2018-01-03T09:55:11.583Z,0.50
2018-01-03T09:57:40.976Z,0.80
2018-01-03T10:00:10.463Z,0.83
2018-01-03T10:02:39.901Z,0.70
2018-01-03T10:05:07.614Z,0.50
2018-01-03T10:07:37.021Z,0.43
2018-01-03T10:10:06.419Z,0.87
2018-01-03T10:12:36.393Z,0.67
2018-01-03T10:15:06.084Z,0.40
2018-01-03T10:17:35.313Z,0.40
2018-01-03T10:20:02.872Z,0.63
2018-01-03T10:22:30.408Z,3.87
2018-01-03T10:24:57.941Z,0.33
2018-01-03T10:27:25.476Z,0.50
2018-01-03T10:29:53.759Z,0.40
2018-01-03T10:32:22.070Z,0.53
2018-01-03T10:34:49.608Z,0.40
2018-01-03T10:37:17.151Z,0.40
2018-01-03T10:39:45.492Z,0.57
2018-01-03T10:42:13.088Z,0.70
2018-01-03T10:44:41.379Z,0.50
2018-01-03T10:47:08.904Z,0.47
2018-01-03T10:49:36.458Z,0.30
2018-01-03T10:52:03.995Z,0.57
2018-01-03T10:54:31.531Z,0.20
2018-01-03T10:56:59.067Z,0.30
2018-01-03T10:59:27.371Z,0.53
2018-01-03T11:01:55.071Z,0.73
2018-01-03T11:04:22.613Z,0.90
2018-01-03T11:06:50.132Z,1.00
2018-01-03T11:09:17.678Z,0.93
2018-01-03T11:11:45.968Z,0.90
2018-01-03T11:14:13.521Z,1.27
2018-01-03T11:16:41.828Z,1.37
2018-01-03T11:19:09.359Z,3.40
2018-01-03T11:21:37.663Z,1.40
2018-01-03T11:24:05.317Z,1.57
2018-01-03T11:26:36.214Z,1.27
2018-01-03T11:29:04.684Z,0.83
2018-01-03T11:31:32.257Z,1.10
2018-01-03T11:34:00.558Z,1.73
2018-01-03T11:36:28.092Z,1.50
2018-01-03T11:38:56.511Z,1.40
2018-01-03T11:41:24.043Z,1.80
2018-01-03T11:43:52.331Z,1.43
2018-01-03T11:46:19.873Z,1.60
2018-01-03T11:48:48.167Z,2.07
2018-01-03T11:51:15.694Z,2.10
2018-01-03T11:53:43.243Z,1.70
2018-01-03T11:56:10.824Z,1.83
2018-01-03T11:58:38.400Z,1.67
2018-01-03T12:01:06.155Z,1.20
2018-01-03T12:03:34.475Z,1.80
2018-01-03T12:06:02.020Z,1.73
2018-01-03T12:08:29.574Z,2.10
2018-01-03T12:10:57.124Z,1.33
2018-01-03T12:13:24.644Z,1.57
2018-01-03T12:15:52.180Z,1.90
2018-01-03T12:18:19.708Z,2.50
2018-01-03T12:20:47.238Z,1.83
2018-01-03T12:23:15.567Z,3.40
2018-01-03T12:25:43.218Z,1.57
2018-01-03T12:28:11.516Z,4.47
2018-01-03T12:30:39.904Z,2.20
2018-01-03T12:33:07.448Z,1.70
2018-01-03T12:35:34.991Z,1.93
2018-01-03T12:38:02.547Z,2.20
2018-01-03T12:40:30.084Z,2.57
2018-01-03T12:43:01.450Z,2.80
2018-01-03T12:45:29.004Z,2.87
2018-01-03T12:47:56.655Z,2.40
2018-01-03T12:50:24.949Z,2.30
2018-01-03T12:52:52.505Z,2.57
2018-01-03T12:55:20.049Z,2.57
2018-01-03T12:57:48.428Z,2.30
2018-01-03T13:00:16.781Z,2.00
2018-01-03T13:02:44.339Z,2.40
2018-01-03T13:05:11.924Z,2.40
2018-01-03T13:07:40.226Z,4.57
2018-01-03T13:10:07.762Z,2.10
2018-01-03T13:12:36.052Z,2.43
2018-01-03T13:15:03.596Z,2.37
2018-01-03T13:17:31.911Z,3.10
2018-01-03T13:20:00.198Z,3.30
2018-01-03T13:22:27.739Z,2.57
2018-01-03T13:24:55.290Z,2.80
2018-01-03T13:27:22.809Z,2.53
2018-01-03T13:29:50.340Z,3.23
2018-01-03T13:32:18.604Z,3.30
2018-01-03T13:34:46.567Z,2.70
2018-01-03T13:37:14.124Z,3.13
2018-01-03T13:39:42.085Z,3.67
2018-01-03T13:42:10.466Z,3.07
2018-01-03T13:44:38.007Z,3.20
2018-01-03T13:47:05.545Z,3.10
2018-01-03T13:49:33.860Z,3.10
2018-01-03T13:52:03.418Z,2.97
2018-01-03T13:54:32.799Z,2.90
2018-01-03T13:57:03.328Z,4.00
2018-01-03T13:59:30.872Z,3.07
2018-01-03T14:01:58.896Z,2.80
2018-01-03T14:04:27.183Z,3.03
2018-01-03T14:06:55.481Z,3.80
2018-01-03T14:09:23.812Z,3.10
2018-01-03T14:11:51.345Z,3.13
2018-01-03T14:14:18.893Z,3.13
2018-01-03T14:16:46.438Z,2.80
2018-01-03T14:19:13.983Z,3.00
2018-01-03T14:21:41.832Z,3.37
2018-01-03T14:24:10.156Z,2.80
2018-01-03T14:26:38.520Z,3.23
2018-01-03T14:29:08.214Z,3.80
2018-01-03T14:31:35.962Z,4.07
2018-01-03T14:34:04.273Z,3.57
2018-01-03T14:36:44.600Z,2.80
2018-01-03T14:39:12.915Z,3.30
2018-01-03T14:41:42.753Z,3.10
2018-01-03T14:44:10.439Z,3.27
2018-01-03T14:46:41.056Z,2.83
2018-01-03T14:49:08.639Z,3.50
2018-01-03T14:51:36.175Z,2.83
2018-01-03T14:54:03.712Z,2.87
2018-01-03T14:56:31.276Z,2.90
2018-01-03T14:58:59.628Z,2.80
2018-01-03T15:01:27.305Z,2.57
2018-01-03T15:03:55.029Z,3.80
2018-01-03T15:06:23.405Z,2.80
2018-01-03T15:08:51.786Z,3.50
2018-01-03T15:11:20.989Z,2.80
2018-01-03T15:13:49.319Z,2.90
2018-01-03T15:16:22.778Z,2.87
2018-01-03T15:19:03.303Z,3.10
2018-01-03T15:21:41.696Z,2.60
2018-01-03T15:24:09.237Z,3.07
2018-01-03T15:26:37.772Z,2.43
2018-01-03T15:29:16.732Z,2.93
2018-01-03T15:31:57.803Z,2.80
2018-01-03T15:34:39.308Z,2.40
2018-01-03T15:37:18.959Z,3.77
2018-01-03T15:40:01.274Z,2.83
2018-01-03T15:42:41.463Z,3.17
2018-01-03T15:45:23.573Z,2.90
2018-01-03T15:48:05.841Z,2.80
2018-01-03T15:50:41.210Z,2.47
2018-01-03T15:53:22.601Z,2.73
2018-01-03T15:55:53.991Z,2.83
2018-01-03T15:58:32.266Z,3.50
2018-01-03T16:01:12.641Z,3.37
2018-01-03T16:03:47.829Z,3.40
2018-01-03T16:06:15.773Z,4.00
2018-01-03T16:11:40.417Z,3.97
2018-01-03T16:14:18.438Z,3.10
2018-01-03T16:16:59.458Z,3.00
2018-01-03T16:19:37.835Z,3.00
2018-01-03T16:22:18.023Z,3.37
2018-01-03T16:24:57.214Z,3.57
2018-01-03T16:27:35.209Z,3.63
2018-01-03T16:30:13.243Z,2.87
2018-01-03T16:32:47.951Z,4.13
2018-01-03T16:35:24.940Z,3.63
2018-01-03T16:38:06.538Z,3.67
2018-01-03T16:40:49.576Z,3.23
2018-01-03T16:43:24.203Z,3.83
2018-01-03T16:46:03.893Z,3.87
2018-01-03T16:48:45.578Z,3.53
2018-01-03T16:51:28.299Z,3.87
2018-01-03T16:54:24.447Z,3.73
2018-01-03T16:57:06.495Z,3.37
2018-01-03T16:59:44.866Z,3.93
2018-01-03T17:05:08.660Z,3.70
2018-01-03T17:07:50.959Z,3.50
2018-01-03T17:10:31.910Z,3.00
2018-01-03T17:13:09.960Z,3.10
2018-01-03T17:15:47.267Z,3.10
2018-01-03T17:18:27.540Z,3.70
2018-01-03T17:21:08.124Z,3.47
2018-01-03T17:23:49.924Z,2.93
2018-01-03T17:26:33.644Z,3.30
2018-01-03T17:29:12.682Z,3.70
2018-01-03T17:31:54.041Z,3.37
2018-01-03T17:34:35.976Z,3.23
2018-01-03T17:37:16.504Z,3.60
2018-01-03T17:39:57.121Z,4.77
2018-01-03T17:42:38.601Z,4.40
2018-01-03T17:45:23.526Z,3.17
2018-01-03T17:48:03.281Z,3.33
2018-01-03T17:50:44.450Z,3.33
2018-01-03T17:53:25.917Z,4.20
2018-01-03T17:56:08.451Z,3.03
2018-01-03T17:58:51.371Z,3.80
2018-01-03T18:04:13.991Z,4.47
2018-01-03T18:06:56.477Z,2.90
2018-01-03T18:09:39.655Z,4.20
2018-01-03T18:12:20.512Z,3.53
2018-01-03T18:15:04.607Z,3.40
2018-01-03T18:17:50.887Z,3.80
2018-01-03T18:20:36.166Z,3.57
2018-01-03T18:35:46.575Z,3.60
2018-01-03T18:38:35.375Z,3.73
2018-01-03T18:41:19.451Z,3.87
2018-01-03T18:44:11.400Z,3.47
2018-01-03T18:46:53.864Z,3.93
2018-01-03T18:52:51.854Z,3.90
2018-01-03T18:55:34.198Z,3.90
2018-01-03T18:58:17.138Z,3.57
2018-01-03T19:00:59.046Z,3.33
2018-01-03T19:03:40.296Z,3.53
2018-01-03T19:06:22.383Z,3.77
2018-01-03T19:09:03.688Z,3.73
2018-01-03T19:11:44.989Z,3.80
2018-01-03T19:14:26.076Z,3.63
2018-01-03T19:17:08.733Z,3.77
2018-01-03T19:19:49.213Z,4.23
2018-01-03T19:22:33.313Z,3.63
2018-01-03T19:25:17.138Z,3.23
2018-01-03T19:28:01.939Z,3.07
2018-01-03T19:30:29.564Z,3.33
2018-01-03T19:35:49.130Z,3.50
2018-01-03T19:38:19.613Z,2.97
2018-01-03T19:40:52.031Z,2.93
2018-01-03T19:46:00.776Z,3.53
2018-01-03T19:48:37.855Z,3.60
2018-01-03T19:51:09.043Z,3.47
2018-01-03T19:53:38.320Z,3.00
2018-01-03T19:58:38.055Z,3.40
2018-01-03T20:01:08.895Z,4.23
2018-01-03T20:03:43.395Z,3.57
2018-01-03T20:06:13.794Z,3.43
2018-01-03T20:11:28.216Z,3.93
2018-01-03T20:23:11.335Z,3.27
2018-01-03T20:34:38.250Z,4.03
2018-01-03T20:37:20.010Z,3.53
2018-01-03T20:39:59.549Z,3.33
2018-01-03T20:42:54.290Z,3.80
2018-01-03T20:45:27.660Z,3.80
2018-01-03T20:47:56.309Z,3.70
2018-01-03T20:53:39.754Z,4.07
2018-01-03T21:03:29.389Z,4.00
2018-01-03T21:06:08.666Z,4.00
2018-01-03T21:08:49.797Z,4.00
2018-01-03T21:11:34.809Z,4.90
2018-01-03T21:14:17.521Z,4.20
2018-01-03T21:17:00.260Z,4.13
2018-01-03T21:22:34.391Z,4.00
2018-01-03T21:27:49.824Z,4.73
2018-01-03T21:33:23.005Z,4.30
2018-01-03T22:17:52.154Z,3.83
2018-01-03T22:20:26.399Z,4.33
2018-01-03T22:23:13.059Z,3.77
2018-01-03T22:25:42.920Z,4.10
2018-01-03T22:28:12.023Z,4.53
2018-01-03T22:30:59.815Z,4.20
2018-01-03T22:33:34.095Z,4.43
2018-01-03T22:36:06.508Z,4.10
2018-01-03T22:38:49.844Z,4.40
2018-01-03T22:41:19.114Z,3.80
2018-01-03T22:58:06.611Z,3.77
2018-01-03T23:00:49.040Z,3.87
2018-01-03T23:03:29.322Z,3.50
2018-01-03T23:06:09.498Z,4.57
2018-01-03T23:08:52.296Z,3.57
2018-01-03T23:11:39.452Z,3.60
2018-01-03T23:14:20.394Z,3.60
2018-01-03T23:16:48.013Z,3.10
2018-01-03T23:19:15.591Z,3.60
2018-01-03T23:21:57.156Z,3.33
2018-01-03T23:24:38.170Z,3.73
2018-01-03T23:27:20.339Z,3.03
2018-01-03T23:30:02.009Z,3.37
2018-01-03T23:32:44.496Z,3.57
2018-01-03T23:35:13.784Z,3.50
2018-01-03T23:37:41.422Z,3.20
2018-01-03T23:40:10.408Z,3.00
2018-01-03T23:42:38.716Z,3.57
2018-01-03T23:45:06.341Z,3.77
2018-01-03T23:47:33.955Z,3.20
2018-01-03T23:50:01.654Z,2.80
2018-01-03T23:52:29.338Z,2.63
2018-01-03T23:54:56.919Z,3.33
2018-01-03T23:57:24.596Z,2.80
2018-01-03T23:59:52.187Z,2.63
